PGT1301 UKBB-UKOO
Flight info
| Callsign | PGT1301 |
|---|---|
| Flight time | 0h 49m |
| Altitude | 35000 |
| Route | BASOR M856 GOBLI L919 ODSAN |
| Aircraft | A20N/M-SDE2E3FGHIRWXY/LB1 |
Departure
| Time | 2026-05-07 18:35 |
|---|---|
| Airport | Boryspil International Airport (UKBB) |
Arrival
| Time | 2026-05-07 19:24 |
|---|---|
| Airport | Odesa International Airport (UKOO) |
| Time | Latitude | Longitude | Altitude | Speed | Heading |
|---|---|---|---|---|---|
| 2026-05-07 17:11 | 50.35152 | 30.89888 | 410 ft | 0 kts | 272° |
| 2026-05-07 18:23 | 50.35151 | 30.89907 | 407 ft | 2 kts | 272° |
| 2026-05-07 18:23 | 50.35151 | 30.89916 | 407 ft | 1 kts | 272° |
| 2026-05-07 18:23 | 50.35151 | 30.89928 | 407 ft | 1 kts | 272° |
| 2026-05-07 18:23 | 50.35151 | 30.89940 | 407 ft | 1 kts | 272° |
| 2026-05-07 18:24 | 50.35150 | 30.89952 | 414 ft | 1 kts | 272° |
| 2026-05-07 18:24 | 50.35150 | 30.89964 | 407 ft | 1 kts | 272° |
| 2026-05-07 18:24 | 50.35150 | 30.89977 | 408 ft | 1 kts | 272° |
| 2026-05-07 18:24 | 50.35149 | 30.89989 | 412 ft | 1 kts | 272° |
| 2026-05-07 18:25 | 50.35149 | 30.90001 | 410 ft | 1 kts | 272° |
| 2026-05-07 18:25 | 50.35149 | 30.90013 | 407 ft | 1 kts | 272° |
| 2026-05-07 18:25 | 50.35149 | 30.90025 | 407 ft | 1 kts | 272° |
| 2026-05-07 18:25 | 50.35148 | 30.90037 | 407 ft | 1 kts | 272° |
| 2026-05-07 18:26 | 50.35148 | 30.90050 | 409 ft | 1 kts | 272° |
| 2026-05-07 18:26 | 50.35148 | 30.90062 | 409 ft | 3 kts | 272° |
| 2026-05-07 18:26 | 50.35146 | 30.90164 | 408 ft | 8 kts | 272° |
| 2026-05-07 18:26 | 50.35146 | 30.90175 | 407 ft | 0 kts | 272° |
| 2026-05-07 18:28 | 50.35144 | 30.90171 | 407 ft | 0 kts | 248° |
| 2026-05-07 18:28 | 50.35142 | 30.90171 | 407 ft | 0 kts | 231° |
| 2026-05-07 18:28 | 50.35140 | 30.90170 | 408 ft | 2 kts | 219° |
| 2026-05-07 18:28 | 50.35089 | 30.90161 | 412 ft | 15 kts | 157° |
| 2026-05-07 18:29 | 50.35042 | 30.90154 | 412 ft | 15 kts | 199° |
| 2026-05-07 18:29 | 50.34957 | 30.90142 | 413 ft | 10 kts | 179° |
| 2026-05-07 18:29 | 50.34848 | 30.90154 | 415 ft | 3 kts | 147° |
| 2026-05-07 18:29 | 50.34855 | 30.90179 | 415 ft | 10 kts | 64° |
| 2026-05-07 18:30 | 50.34946 | 30.90242 | 415 ft | 23 kts | 345° |
| 2026-05-07 18:30 | 50.35176 | 30.90260 | 408 ft | 30 kts | 6° |
| 2026-05-07 18:30 | 50.35428 | 30.90275 | 408 ft | 47 kts | 1° |
| 2026-05-07 18:30 | 50.35704 | 30.90293 | 409 ft | 19 kts | 3° |
| 2026-05-07 18:31 | 50.35900 | 30.90310 | 408 ft | 40 kts | 3° |
| 2026-05-07 18:31 | 50.36018 | 30.90325 | 412 ft | 15 kts | 18° |
| 2026-05-07 18:31 | 50.36079 | 30.90410 | 415 ft | 0 kts | 64° |
| 2026-05-07 18:33 | 50.36086 | 30.90510 | 407 ft | 12 kts | 109° |
| 2026-05-07 18:33 | 50.36069 | 30.90562 | 410 ft | 0 kts | 120° |
| 2026-05-07 18:34 | 50.36027 | 30.90676 | 414 ft | 33 kts | 120° |
| 2026-05-07 18:34 | 50.35918 | 30.90756 | 414 ft | 20 kts | 205° |
| 2026-05-07 18:34 | 50.35742 | 30.90634 | 416 ft | 56 kts | 185° |
| 2026-05-07 18:35 | 50.35026 | 30.90569 | 418 ft | 143 kts | 183° |
| 2026-05-07 18:35 | 50.33896 | 30.90434 | 879 ft | 174 kts | 186° |
| 2026-05-07 18:35 | 50.32619 | 30.90220 | 1623 ft | 198 kts | 188° |
| 2026-05-07 18:35 | 50.31125 | 30.89993 | 2431 ft | 231 kts | 186° |
| 2026-05-07 18:36 | 50.29446 | 30.89796 | 3178 ft | 259 kts | 185° |
| 2026-05-07 18:36 | 50.27554 | 30.89682 | 3940 ft | 284 kts | 183° |
| 2026-05-07 18:36 | 50.25585 | 30.89624 | 4688 ft | 277 kts | 182° |
| 2026-05-07 18:36 | 50.23698 | 30.89572 | 5726 ft | 266 kts | 182° |
| 2026-05-07 18:37 | 50.21855 | 30.89506 | 6957 ft | 266 kts | 182° |
| 2026-05-07 18:37 | 50.19982 | 30.89426 | 7988 ft | 272 kts | 183° |
| 2026-05-07 18:37 | 50.18074 | 30.89333 | 9040 ft | 277 kts | 185° |
| 2026-05-07 18:37 | 50.16164 | 30.88786 | 10041 ft | 282 kts | 197° |
| 2026-05-07 18:38 | 50.14332 | 30.87504 | 10666 ft | 300 kts | 217° |
| 2026-05-07 18:38 | 50.12878 | 30.85030 | 11091 ft | 323 kts | 239° |
| 2026-05-07 18:38 | 50.12144 | 30.81650 | 11746 ft | 337 kts | 263° |
| 2026-05-07 18:38 | 50.12319 | 30.78001 | 12661 ft | 345 kts | 284° |
| 2026-05-07 18:39 | 50.13371 | 30.74612 | 13563 ft | 354 kts | 305° |
| 2026-05-07 18:39 | 50.15187 | 30.71951 | 14385 ft | 365 kts | 325° |
| 2026-05-07 18:39 | 50.17510 | 30.70412 | 15214 ft | 372 kts | 346° |
| 2026-05-07 18:39 | 50.20141 | 30.70164 | 16051 ft | 379 kts | 6° |
| 2026-05-07 18:40 | 50.22685 | 30.71140 | 16839 ft | 385 kts | 15° |
| 2026-05-07 18:40 | 50.25283 | 30.72187 | 17639 ft | 388 kts | 12° |
| 2026-05-07 18:40 | 50.27945 | 30.73113 | 18445 ft | 392 kts | 11° |
| 2026-05-07 18:40 | 50.30624 | 30.74027 | 19166 ft | 395 kts | 11° |
| 2026-05-07 18:41 | 50.33313 | 30.74965 | 19900 ft | 397 kts | 12° |
| 2026-05-07 18:41 | 50.36017 | 30.75933 | 20610 ft | 400 kts | 12° |
| 2026-05-07 18:41 | 50.38738 | 30.76926 | 21317 ft | 403 kts | 12° |
| 2026-05-07 18:41 | 50.41490 | 30.77938 | 22010 ft | 407 kts | 12° |
| 2026-05-07 18:42 | 50.44259 | 30.79002 | 22708 ft | 410 kts | 17° |
| 2026-05-07 18:42 | 50.46862 | 30.80885 | 23344 ft | 416 kts | 32° |
| 2026-05-07 18:42 | 50.49037 | 30.83755 | 23928 ft | 420 kts | 47° |
| 2026-05-07 18:42 | 50.50709 | 30.87504 | 24503 ft | 423 kts | 63° |
| 2026-05-07 18:43 | 50.51737 | 30.91862 | 24981 ft | 427 kts | 78° |
| 2026-05-07 18:43 | 50.52022 | 30.96496 | 25579 ft | 428 kts | 92° |
| 2026-05-07 18:43 | 50.51573 | 31.01146 | 26059 ft | 432 kts | 107° |
| 2026-05-07 18:43 | 50.50406 | 31.05500 | 26544 ft | 435 kts | 121° |
| 2026-05-07 18:44 | 50.49242 | 31.08149 | 26892 ft | 435 kts | 130° |
| 2026-05-07 18:44 | 50.47060 | 31.11441 | 27364 ft | 438 kts | 144° |
| 2026-05-07 18:44 | 50.44464 | 31.13836 | 27709 ft | 442 kts | 157° |
| 2026-05-07 18:44 | 50.41521 | 31.15238 | 28141 ft | 444 kts | 171° |
| 2026-05-07 18:45 | 50.38447 | 31.15538 | 28560 ft | 446 kts | 184° |
| 2026-05-07 18:45 | 50.35365 | 31.14723 | 29002 ft | 447 kts | 198° |
| 2026-05-07 18:45 | 50.32483 | 31.12846 | 29420 ft | 449 kts | 210° |
| 2026-05-07 18:45 | 50.29756 | 31.10414 | 29773 ft | 453 kts | 209° |
| 2026-05-07 18:46 | 50.26865 | 31.08378 | 30155 ft | 457 kts | 201° |
| 2026-05-07 18:46 | 50.23808 | 31.06968 | 30562 ft | 459 kts | 194° |
| 2026-05-07 18:46 | 50.20667 | 31.06008 | 30949 ft | 461 kts | 190° |
| 2026-05-07 18:46 | 50.17489 | 31.05287 | 31381 ft | 462 kts | 188° |
| 2026-05-07 18:47 | 50.14344 | 31.04672 | 31835 ft | 462 kts | 188° |
| 2026-05-07 18:47 | 50.11154 | 31.04073 | 32345 ft | 460 kts | 188° |
| 2026-05-07 18:47 | 50.07976 | 31.03475 | 32829 ft | 459 kts | 188° |
| 2026-05-07 18:47 | 50.04804 | 31.02870 | 33301 ft | 458 kts | 188° |
| 2026-05-07 18:48 | 50.01636 | 31.02262 | 33764 ft | 457 kts | 188° |
| 2026-05-07 18:48 | 49.98480 | 31.01654 | 34191 ft | 456 kts | 188° |
| 2026-05-07 18:48 | 49.95336 | 31.01046 | 34563 ft | 455 kts | 188° |
| 2026-05-07 18:48 | 49.92199 | 31.00438 | 34906 ft | 455 kts | 188° |
| 2026-05-07 18:49 | 49.89056 | 30.99828 | 35018 ft | 455 kts | 188° |
| 2026-05-07 18:49 | 49.82782 | 30.98614 | 35032 ft | 453 kts | 188° |
| 2026-05-07 18:50 | 49.76520 | 30.97405 | 35037 ft | 453 kts | 188° |
| 2026-05-07 18:50 | 49.70261 | 30.96201 | 35037 ft | 454 kts | 188° |
| 2026-05-07 18:51 | 49.64027 | 30.95004 | 35042 ft | 454 kts | 188° |
| 2026-05-07 18:51 | 49.57748 | 30.93801 | 35044 ft | 454 kts | 188° |
| 2026-05-07 18:52 | 49.51480 | 30.92604 | 35046 ft | 453 kts | 188° |
| 2026-05-07 18:52 | 49.45226 | 30.91414 | 35042 ft | 453 kts | 188° |
| 2026-05-07 18:53 | 49.38965 | 30.90227 | 35038 ft | 453 kts | 188° |
| 2026-05-07 18:53 | 49.32697 | 30.89042 | 35041 ft | 454 kts | 188° |
| 2026-05-07 18:54 | 49.26421 | 30.87857 | 35046 ft | 454 kts | 188° |
| 2026-05-07 18:54 | 49.20142 | 30.86673 | 35052 ft | 455 kts | 188° |
| 2026-05-07 18:55 | 49.13888 | 30.85497 | 35055 ft | 455 kts | 188° |
| 2026-05-07 18:55 | 49.07588 | 30.84314 | 35061 ft | 455 kts | 188° |
| 2026-05-07 18:56 | 49.01298 | 30.83135 | 35063 ft | 456 kts | 188° |
| 2026-05-07 18:56 | 48.95038 | 30.81967 | 35066 ft | 456 kts | 188° |
| 2026-05-07 18:57 | 48.88738 | 30.80793 | 35063 ft | 456 kts | 188° |
| 2026-05-07 18:57 | 48.82429 | 30.79621 | 35066 ft | 457 kts | 188° |
| 2026-05-07 18:58 | 48.76112 | 30.78451 | 35072 ft | 457 kts | 188° |
| 2026-05-07 18:58 | 48.69797 | 30.77286 | 35073 ft | 457 kts | 188° |
| 2026-05-07 18:59 | 48.63465 | 30.76118 | 35071 ft | 458 kts | 188° |
| 2026-05-07 18:59 | 48.57148 | 30.74957 | 35084 ft | 458 kts | 188° |
| 2026-05-07 19:00 | 48.50836 | 30.73799 | 35075 ft | 458 kts | 188° |
| 2026-05-07 19:00 | 48.44502 | 30.72642 | 35058 ft | 458 kts | 188° |
| 2026-05-07 19:00 | 48.41335 | 30.72063 | 34847 ft | 458 kts | 188° |
| 2026-05-07 19:01 | 48.38171 | 30.71485 | 34607 ft | 459 kts | 188° |
| 2026-05-07 19:01 | 48.34984 | 30.70904 | 34366 ft | 460 kts | 188° |
| 2026-05-07 19:01 | 48.31895 | 30.69998 | 34127 ft | 458 kts | 199° |
| 2026-05-07 19:01 | 48.28962 | 30.68125 | 33866 ft | 456 kts | 212° |
| 2026-05-07 19:02 | 48.26380 | 30.65372 | 33579 ft | 453 kts | 224° |
| 2026-05-07 19:02 | 48.24273 | 30.61886 | 33311 ft | 450 kts | 237° |
| 2026-05-07 19:02 | 48.22505 | 30.58010 | 32972 ft | 452 kts | 233° |
| 2026-05-07 19:02 | 48.20323 | 30.54588 | 32240 ft | 457 kts | 221° |
| 2026-05-07 19:03 | 48.17689 | 30.51851 | 31184 ft | 465 kts | 210° |
| 2026-05-07 19:03 | 48.14723 | 30.49940 | 29936 ft | 475 kts | 198° |
| 2026-05-07 19:03 | 48.11465 | 30.48952 | 28749 ft | 480 kts | 185° |
| 2026-05-07 19:03 | 48.08139 | 30.48984 | 27979 ft | 474 kts | 175° |
| 2026-05-07 19:04 | 48.04866 | 30.49446 | 27248 ft | 468 kts | 175° |
| 2026-05-07 19:04 | 48.01626 | 30.49748 | 26512 ft | 463 kts | 178° |
| 2026-05-07 19:04 | 47.98422 | 30.49799 | 25803 ft | 458 kts | 181° |
| 2026-05-07 19:04 | 47.95254 | 30.49672 | 25077 ft | 453 kts | 182° |
| 2026-05-07 19:05 | 47.92110 | 30.49450 | 24375 ft | 449 kts | 183° |
| 2026-05-07 19:05 | 47.89009 | 30.49192 | 23687 ft | 445 kts | 184° |
| 2026-05-07 19:05 | 47.85931 | 30.48925 | 22985 ft | 439 kts | 184° |
| 2026-05-07 19:05 | 47.82897 | 30.48664 | 22160 ft | 436 kts | 184° |
| 2026-05-07 19:06 | 47.79894 | 30.48407 | 21533 ft | 429 kts | 183° |
| 2026-05-07 19:06 | 47.73995 | 30.47911 | 20223 ft | 418 kts | 183° |
| 2026-05-07 19:06 | 47.71108 | 30.47669 | 19574 ft | 413 kts | 183° |
| 2026-05-07 19:07 | 47.68284 | 30.47434 | 18920 ft | 409 kts | 183° |
| 2026-05-07 19:07 | 47.65457 | 30.47199 | 18296 ft | 403 kts | 182° |
| 2026-05-07 19:07 | 47.62669 | 30.46967 | 17581 ft | 399 kts | 182° |
| 2026-05-07 19:07 | 47.59911 | 30.46737 | 16876 ft | 395 kts | 182° |
| 2026-05-07 19:08 | 47.57176 | 30.46511 | 16154 ft | 391 kts | 182° |
| 2026-05-07 19:08 | 47.54472 | 30.46288 | 15463 ft | 388 kts | 183° |
| 2026-05-07 19:08 | 47.51794 | 30.46066 | 14794 ft | 384 kts | 182° |
| 2026-05-07 19:08 | 47.49132 | 30.45847 | 14135 ft | 381 kts | 183° |
| 2026-05-07 19:09 | 47.46493 | 30.45629 | 13482 ft | 377 kts | 183° |
| 2026-05-07 19:09 | 47.43882 | 30.45413 | 12856 ft | 372 kts | 183° |
| 2026-05-07 19:09 | 47.41319 | 30.45201 | 12302 ft | 365 kts | 183° |
| 2026-05-07 19:09 | 47.38792 | 30.44993 | 11647 ft | 362 kts | 183° |
| 2026-05-07 19:10 | 47.36285 | 30.44787 | 11074 ft | 357 kts | 183° |
| 2026-05-07 19:10 | 47.33809 | 30.44582 | 10406 ft | 356 kts | 182° |
| 2026-05-07 19:10 | 47.31389 | 30.44381 | 10202 ft | 340 kts | 182° |
| 2026-05-07 19:10 | 47.29071 | 30.44191 | 10057 ft | 324 kts | 182° |
| 2026-05-07 19:11 | 47.26896 | 30.44015 | 9900 ft | 310 kts | 182° |
| 2026-05-07 19:11 | 47.24789 | 30.43851 | 9768 ft | 296 kts | 180° |
| 2026-05-07 19:11 | 47.22790 | 30.44138 | 9604 ft | 283 kts | 172° |
| 2026-05-07 19:11 | 47.20853 | 30.44547 | 9476 ft | 283 kts | 171° |
| 2026-05-07 19:12 | 47.18896 | 30.44969 | 9355 ft | 283 kts | 171° |
| 2026-05-07 19:12 | 47.16963 | 30.45384 | 9225 ft | 277 kts | 171° |
| 2026-05-07 19:12 | 47.15064 | 30.45792 | 9093 ft | 276 kts | 172° |
| 2026-05-07 19:12 | 47.13174 | 30.46196 | 8977 ft | 277 kts | 172° |
| 2026-05-07 19:13 | 47.11256 | 30.46607 | 8827 ft | 275 kts | 172° |
| 2026-05-07 19:13 | 47.09367 | 30.47009 | 8710 ft | 274 kts | 172° |
| 2026-05-07 19:13 | 47.07504 | 30.47405 | 8584 ft | 273 kts | 172° |
| 2026-05-07 19:13 | 47.05619 | 30.47805 | 8457 ft | 274 kts | 172° |
| 2026-05-07 19:14 | 47.03723 | 30.48208 | 8110 ft | 276 kts | 172° |
| 2026-05-07 19:14 | 47.01823 | 30.48611 | 7691 ft | 276 kts | 172° |
| 2026-05-07 19:14 | 46.99935 | 30.49012 | 7280 ft | 275 kts | 172° |
| 2026-05-07 19:14 | 46.98042 | 30.49414 | 6866 ft | 274 kts | 172° |
| 2026-05-07 19:15 | 46.96152 | 30.49816 | 6459 ft | 273 kts | 172° |
| 2026-05-07 19:15 | 46.94272 | 30.50213 | 6026 ft | 272 kts | 172° |
| 2026-05-07 19:15 | 46.92400 | 30.50607 | 5598 ft | 271 kts | 172° |
| 2026-05-07 19:15 | 46.90527 | 30.51002 | 5180 ft | 270 kts | 172° |
| 2026-05-07 19:16 | 46.88665 | 30.51394 | 4755 ft | 270 kts | 172° |
| 2026-05-07 19:16 | 46.86815 | 30.51784 | 4313 ft | 268 kts | 172° |
| 2026-05-07 19:16 | 46.84978 | 30.52171 | 3890 ft | 266 kts | 172° |
| 2026-05-07 19:16 | 46.83149 | 30.52556 | 3476 ft | 265 kts | 173° |
| 2026-05-07 19:17 | 46.81329 | 30.52939 | 3104 ft | 261 kts | 173° |
| 2026-05-07 19:17 | 46.79573 | 30.53310 | 2978 ft | 247 kts | 173° |
| 2026-05-07 19:17 | 46.77928 | 30.53656 | 2976 ft | 231 kts | 173° |
| 2026-05-07 19:17 | 46.76386 | 30.53979 | 2973 ft | 216 kts | 173° |
| 2026-05-07 19:18 | 46.74879 | 30.54294 | 2978 ft | 220 kts | 173° |
| 2026-05-07 19:18 | 46.73372 | 30.54517 | 2978 ft | 217 kts | 178° |
| 2026-05-07 19:18 | 46.71888 | 30.54731 | 2977 ft | 218 kts | 172° |
| 2026-05-07 19:18 | 46.70405 | 30.55207 | 2978 ft | 218 kts | 166° |
| 2026-05-07 19:19 | 46.68943 | 30.55830 | 2974 ft | 218 kts | 165° |
| 2026-05-07 19:19 | 46.67485 | 30.56472 | 2974 ft | 219 kts | 165° |
| 2026-05-07 19:19 | 46.66024 | 30.57112 | 2975 ft | 219 kts | 165° |
| 2026-05-07 19:19 | 46.64574 | 30.57747 | 2979 ft | 233 kts | 165° |
| 2026-05-07 19:20 | 46.62941 | 30.58462 | 2977 ft | 247 kts | 164° |
| 2026-05-07 19:20 | 46.61293 | 30.59185 | 2982 ft | 249 kts | 165° |
| 2026-05-07 19:20 | 46.59631 | 30.59912 | 2980 ft | 249 kts | 165° |
| 2026-05-07 19:20 | 46.57970 | 30.60638 | 2981 ft | 249 kts | 165° |
| 2026-05-07 19:21 | 46.56343 | 30.61350 | 2974 ft | 236 kts | 165° |
| 2026-05-07 19:21 | 46.54815 | 30.62017 | 2977 ft | 221 kts | 165° |
| 2026-05-07 19:21 | 46.53446 | 30.62616 | 2992 ft | 183 kts | 165° |
| 2026-05-07 19:21 | 46.52387 | 30.63079 | 2973 ft | 141 kts | 165° |
| 2026-05-07 19:22 | 46.51517 | 30.63465 | 2877 ft | 129 kts | 164° |
| 2026-05-07 19:22 | 46.50694 | 30.63919 | 2579 ft | 124 kts | 161° |
| 2026-05-07 19:22 | 46.49903 | 30.64373 | 2259 ft | 122 kts | 162° |
| 2026-05-07 19:22 | 46.49093 | 30.64794 | 1882 ft | 124 kts | 165° |
| 2026-05-07 19:23 | 46.48274 | 30.65176 | 1534 ft | 123 kts | 165° |
| 2026-05-07 19:23 | 46.47462 | 30.65535 | 1189 ft | 122 kts | 165° |
| 2026-05-07 19:23 | 46.46659 | 30.65879 | 852 ft | 121 kts | 166° |
| 2026-05-07 19:23 | 46.45850 | 30.66163 | 653 ft | 120 kts | 162° |
| 2026-05-07 19:24 | 46.45068 | 30.66581 | 527 ft | 118 kts | 163° |
| 2026-05-07 19:24 | 46.44278 | 30.66960 | 357 ft | 118 kts | 165° |
| 2026-05-07 19:24 | 46.43479 | 30.67300 | 205 ft | 121 kts | 165° |
| 2026-05-07 19:24 | 46.42820 | 30.67592 | 175 ft | 38 kts | 158° |
| 2026-05-07 19:25 | 46.42764 | 30.67621 | 173 ft | 22 kts | 162° |
| 2026-05-07 19:25 | 46.42693 | 30.67687 | 175 ft | 17 kts | 96° |
| 2026-05-07 19:25 | 46.42720 | 30.67854 | 174 ft | 0 kts | 82° |
| 2026-05-07 19:26 | 46.42722 | 30.67870 | 174 ft | 4 kts | 80° |
| 2026-05-07 19:26 | 46.42728 | 30.67909 | 174 ft | 8 kts | 77° |
| 2026-05-07 19:27 | 46.42762 | 30.67985 | 174 ft | 10 kts | 20° |
| 2026-05-07 19:27 | 46.42844 | 30.67968 | 174 ft | 14 kts | 345° |
| 2026-05-07 19:27 | 46.42952 | 30.67918 | 174 ft | 18 kts | 341° |
| 2026-05-07 19:27 | 46.43072 | 30.67870 | 174 ft | 16 kts | 345° |
| 2026-05-07 19:28 | 46.43178 | 30.67829 | 174 ft | 18 kts | 345° |
| 2026-05-07 19:28 | 46.43310 | 30.67776 | 175 ft | 21 kts | 342° |
| 2026-05-07 19:28 | 46.43423 | 30.67723 | 175 ft | 14 kts | 342° |
| 2026-05-07 19:28 | 46.43525 | 30.67675 | 175 ft | 16 kts | 342° |
| 2026-05-07 19:29 | 46.43647 | 30.67618 | 175 ft | 20 kts | 342° |
| 2026-05-07 19:29 | 46.43792 | 30.67549 | 176 ft | 23 kts | 342° |
| 2026-05-07 19:29 | 46.43824 | 30.67535 | 176 ft | 3 kts | 342° |
| 2026-05-07 19:29 | 46.43862 | 30.67520 | 176 ft | 8 kts | 347° |
| 2026-05-07 19:30 | 46.43932 | 30.67491 | 177 ft | 13 kts | 339° |
| 2026-05-07 19:30 | 46.43979 | 30.67450 | 176 ft | 0 kts | 294° |
| 2026-05-07 19:30 | 46.43979 | 30.67448 | 176 ft | 0 kts | 282° |
| 2026-05-07 19:30 | 46.43956 | 30.67375 | 176 ft | 18 kts | 227° |
| 2026-05-07 19:31 | 46.43939 | 30.67285 | 176 ft | 9 kts | 314° |
| 2026-05-07 19:31 | 46.43996 | 30.67282 | 176 ft | 20 kts | 17° |
| 2026-05-07 19:31 | 46.44102 | 30.67291 | 176 ft | 13 kts | 349° |
| 2026-05-07 19:31 | 46.44207 | 30.67301 | 176 ft | 6 kts | 46° |
| 2026-05-07 19:32 | 46.44215 | 30.67313 | 176 ft | 0 kts | 46° |
| 2026-05-07 19:32 | 46.44215 | 30.67337 | 176 ft | 0 kts | 102° |
| 2026-05-07 19:32 | 46.44211 | 30.67346 | 176 ft | 1 kts | 123° |
| 2026-05-07 19:32 | 46.44202 | 30.67357 | 176 ft | 0 kts | 140° |
| 2026-05-07 19:33 | 46.44198 | 30.67362 | 176 ft | 0 kts | 140° |
| 2026-05-07 19:33 | 46.44196 | 30.67365 | 176 ft | 0 kts | 136° |
| 2026-05-07 19:33 | 46.44194 | 30.67368 | 176 ft | 0 kts | 130° |
| 2026-05-07 19:33 | 46.44195 | 30.67367 | 176 ft | 2 kts | 124° |
| 2026-05-07 19:34 | 46.44199 | 30.67362 | 176 ft | 0 kts | 98° |
| 2026-05-07 19:34 | 46.44198 | 30.67364 | 176 ft | 1 kts | 102° |
| 2026-05-07 19:34 | 46.44198 | 30.67365 | 176 ft | 0 kts | 104° |